Time;durP1;ratioP1;P1;durP2;ratioP2;P2;SDS_P1;SDS_P2;PMS_P1;PMS_P2;Temp;Humidity;BMP_temperature;BMP_pressure;BME280_temperature;BME280_humidity;BME280_pressure;Samples;Min_cycle;Max_cycle;Signal;HPM_P1;HPM_P2
2023/12/16 00:00:18;;;;;;;10.60;10.30;;;5.60;99.90;;;;;;5067469;28;20334;-88
2023/12/16 00:02:58;;;;;;;10.63;10.33;;;5.60;99.90;;;;;;5073491;28;20239;-87
2023/12/16 00:05:30;;;;;;;10.50;10.20;;;5.70;99.90;;;;;;5064887;28;20292;-87
2023/12/16 00:07:58;;;;;;;10.60;10.30;;;5.70;99.90;;;;;;5054409;28;20235;-87
2023/12/16 00:10:26;;;;;;;10.47;10.17;;;5.70;99.90;;;;;;5064276;28;20227;-88
2023/12/16 00:13:05;;;;;;;10.60;10.30;;;5.80;99.90;;;;;;5064294;28;20230;-87
2023/12/16 00:15:34;;;;;;;10.53;10.23;;;5.80;99.90;;;;;;5063690;28;20237;-87
2023/12/16 00:18:03;;;;;;;10.63;10.33;;;5.90;99.90;;;;;;5065444;28;20223;-88
2023/12/16 00:20:36;;;;;;;10.60;10.30;;;5.90;99.90;;;;;;5065462;28;20242;-87
2023/12/16 00:23:04;;;;;;;10.50;10.20;;;5.90;99.90;;;;;;5063956;28;20242;-87
2023/12/16 00:25:32;;;;;;;10.37;10.07;;;5.90;99.90;;;;;;5064012;28;20227;-87
2023/12/16 00:28:01;;;;;;;10.63;10.33;;;6.00;99.90;;;;;;5064470;28;20239;-87
2023/12/16 00:30:41;;;;;;;10.70;10.40;;;6.00;99.90;;;;;;5063737;28;20227;-87
2023/12/16 00:33:10;;;;;;;10.67;10.37;;;6.00;99.90;;;;;;5063434;28;20230;-87
2023/12/16 00:35:41;;;;;;;10.50;10.20;;;6.00;99.90;;;;;;5064041;28;20227;-87
2023/12/16 00:38:08;;;;;;;10.60;10.30;;;6.00;99.90;;;;;;5064204;28;20227;-88
2023/12/16 00:40:37;;;;;;;10.63;10.33;;;6.00;99.90;;;;;;5063743;28;20238;-87
2023/12/16 00:43:16;;;;;;;11.00;10.60;;;6.00;99.90;;;;;;5063809;28;20348;-87
2023/12/16 00:45:45;;;;;;;10.63;10.33;;;6.00;99.90;;;;;;5066717;28;20219;-88
2023/12/16 00:48:24;;;;;;;11.00;10.60;;;6.00;99.90;;;;;;5079435;28;20227;-89
2023/12/16 00:50:55;;;;;;;10.83;10.50;;;5.90;99.90;;;;;;5078656;28;20227;-88
2023/12/16 00:53:23;;;;;;;10.73;10.43;;;5.90;99.90;;;;;;5065173;28;20234;-88
2023/12/16 00:55:51;;;;;;;10.70;10.40;;;5.90;99.90;;;;;;5064037;28;20234;-87
2023/12/16 00:58:21;;;;;;;10.40;10.10;;;5.90;99.90;;;;;;5063781;28;20227;-87
2023/12/16 01:01:01;;;;;;;10.57;10.27;;;5.90;99.90;;;;;;5064346;28;20235;-87
2023/12/16 01:03:28;;;;;;;10.60;10.30;;;5.80;99.90;;;;;;5068430;28;20285;-87
2023/12/16 01:06:01;;;;;;;10.80;10.40;;;5.70;99.90;;;;;;5067379;28;20223;-88
2023/12/16 01:08:30;;;;;;;10.70;10.40;;;5.70;99.90;;;;;;5064435;28;20325;-88
2023/12/16 01:10:57;;;;;;;10.50;10.20;;;5.70;99.90;;;;;;5064417;28;20273;-87
2023/12/16 01:13:37;;;;;;;10.60;10.30;;;5.70;99.90;;;;;;5064625;28;20234;-87
2023/12/16 01:16:05;;;;;;;10.40;10.10;;;5.80;99.90;;;;;;5064319;28;20298;-88
2023/12/16 01:18:44;;;;;;;10.60;10.30;;;5.80;99.90;;;;;;5063927;28;20219;-87
2023/12/16 01:21:16;;;;;;;10.63;10.33;;;5.70;99.90;;;;;;5064196;28;20368;-87
2023/12/16 01:23:44;;;;;;;10.63;10.33;;;5.80;99.90;;;;;;5064029;28;20230;-88
2023/12/16 01:26:12;;;;;;;10.40;10.10;;;5.80;99.90;;;;;;5063675;28;20297;-87
2023/12/16 01:28:41;;;;;;;10.50;10.20;;;5.80;99.90;;;;;;5063720;28;20230;-87
2023/12/16 01:31:10;;;;;;;10.40;10.10;;;5.80;99.90;;;;;;5064014;28;20229;-87
2023/12/16 01:36:28;;;;;;;10.57;10.27;;;5.80;99.90;;;;;;5071400;22;20313;-88
2023/12/16 01:38:56;;;;;;;10.50;10.20;;;5.80;99.90;;;;;;5076878;28;20223;-88
2023/12/16 01:41:25;;;;;;;10.50;10.20;;;5.80;99.90;;;;;;5065425;28;20300;-88
2023/12/16 01:44:04;;;;;;;10.20;9.90;;;5.80;99.90;;;;;;5064388;28;20235;-88
2023/12/16 01:46:35;;;;;;;10.23;9.93;;;5.80;99.90;;;;;;5063103;28;20234;-88
2023/12/16 01:49:02;;;;;;;10.40;10.10;;;5.80;99.90;;;;;;5063526;28;20282;-87
2023/12/16 01:54:19;;;;;;;10.43;10.13;;;5.80;99.90;;;;;;5062580;28;20238;-88
2023/12/16 01:56:57;;;;;;;10.23;9.93;;;5.80;99.90;;;;;;5062966;28;20227;-88
2023/12/16 01:59:26;;;;;;;10.37;10.07;;;5.80;99.90;;;;;;5063058;28;20215;-88
2023/12/16 02:01:56;;;;;;;10.33;10.03;;;5.80;99.90;;;;;;5062799;28;20235;-88
2023/12/16 02:04:37;;;;;;;10.37;10.07;;;5.80;99.90;;;;;;5063729;28;20230;-87
2023/12/16 02:07:08;;;;;;;10.47;10.17;;;5.80;99.90;;;;;;5073064;28;20237;-87
2023/12/16 02:09:35;;;;;;;10.17;9.87;;;5.80;99.90;;;;;;5070161;28;20807;-87
2023/12/16 02:12:14;;;;;;;10.20;9.90;;;5.80;99.90;;;;;;5067163;28;20235;-88
2023/12/16 02:14:43;;;;;;;10.23;9.93;;;5.80;99.90;;;;;;5066348;28;20250;-88
2023/12/16 02:17:12;;;;;;;10.40;10.10;;;5.80;99.90;;;;;;5066353;28;20531;-87
2023/12/16 02:19:41;;;;;;;10.40;10.10;;;5.80;99.90;;;;;;5066352;28;20218;-87
2023/12/16 02:25:27;;;;;;;10.33;10.03;;;5.70;99.90;;;;;;5064425;28;20227;-88
2023/12/16 02:28:03;;;;;;;10.43;10.13;;;5.70;99.90;;;;;;5066046;28;20246;-88
2023/12/16 02:30:32;;;;;;;10.20;9.90;;;5.70;99.90;;;;;;5066099;28;20272;-88
2023/12/16 02:33:10;;;;;;;10.40;10.10;;;5.70;99.90;;;;;;5066551;28;20230;-87
2023/12/16 02:35:50;;;;;;;10.50;10.20;;;5.60;99.90;;;;;;5066077;28;20240;-87
2023/12/16 02:38:18;;;;;;;10.50;10.20;;;5.60;99.90;;;;;;5068162;28;20231;-88
2023/12/16 02:40:50;;;;;;;10.27;9.97;;;5.60;99.90;;;;;;5068477;28;20227;-87
2023/12/16 02:43:18;;;;;;;10.40;10.10;;;5.60;99.90;;;;;;5079268;28;20225;-88
2023/12/16 02:45:46;;;;;;;10.27;9.97;;;5.50;99.90;;;;;;5078954;28;20241;-88
2023/12/16 02:48:25;;;;;;;10.17;9.87;;;5.50;99.90;;;;;;5066903;28;20234;-88
2023/12/16 02:50:54;;;;;;;10.20;9.90;;;5.50;99.90;;;;;;5067560;28;20214;-88
2023/12/16 02:53:33;;;;;;;10.20;9.90;;;5.50;99.90;;;;;;5066565;28;20227;-87
2023/12/16 02:58:49;;;;;;;10.20;9.90;;;5.40;99.90;;;;;;5065633;28;20245;-87
2023/12/16 03:01:18;;;;;;;10.37;10.07;;;5.50;99.90;;;;;;5065294;28;21063;-88
2023/12/16 03:03:57;;;;;;;10.40;10.10;;;5.40;99.90;;;;;;5064866;28;20227;-88
2023/12/16 03:06:26;;;;;;;10.43;10.13;;;5.40;99.90;;;;;;5065117;28;20254;-88
2023/12/16 03:08:55;;;;;;;10.30;10.00;;;5.40;99.90;;;;;;5065004;28;20746;-89
2023/12/16 03:11:27;;;;;;;10.37;10.07;;;5.40;99.90;;;;;;5066153;28;20269;-88
2023/12/16 03:13:55;;;;;;;10.30;10.00;;;5.30;99.90;;;;;;5065323;28;20227;-88
2023/12/16 03:16:23;;;;;;;10.23;9.93;;;5.30;99.90;;;;;;5065296;28;20258;-87
2023/12/16 03:19:02;;;;;;;10.50;10.20;;;5.30;99.90;;;;;;5065742;28;20253;-88
2023/12/16 03:21:32;;;;;;;10.50;10.20;;;5.30;99.90;;;;;;5063853;28;20231;-88
2023/12/16 03:24:00;;;;;;;10.20;9.90;;;5.40;99.90;;;;;;5064603;28;20231;-88
2023/12/16 03:26:33;;;;;;;10.20;9.90;;;5.40;99.90;;;;;;5064506;28;20230;-88
2023/12/16 03:29:00;;;;;;;10.30;10.00;;;5.30;99.90;;;;;;5064943;28;20227;-88
2023/12/16 03:31:29;;;;;;;10.13;9.83;;;5.40;99.90;;;;;;5065127;28;20230;-88
2023/12/16 03:34:08;;;;;;;10.27;9.97;;;5.30;99.90;;;;;;5064477;28;20231;-88
2023/12/16 03:36:37;;;;;;;10.03;9.73;;;5.30;99.90;;;;;;5065514;28;20219;-88
2023/12/16 03:39:06;;;;;;;10.23;9.93;;;5.40;99.90;;;;;;5064720;28;20242;-87
2023/12/16 03:41:38;;;;;;;10.03;9.73;;;5.40;99.90;;;;;;5064085;28;20285;-88
2023/12/16 03:44:06;;;;;;;10.27;9.97;;;5.50;99.90;;;;;;5063856;28;20235;-88
2023/12/16 03:46:34;;;;;;;10.23;9.93;;;5.40;99.90;;;;;;5065112;28;20235;-88
2023/12/16 03:49:13;;;;;;;9.83;9.53;;;5.40;99.90;;;;;;5068669;28;20325;-87
2023/12/16 03:51:42;;;;;;;9.90;9.60;;;5.40;99.90;;;;;;5064272;28;20218;-88
2023/12/16 03:54:11;;;;;;;10.00;9.70;;;5.50;99.90;;;;;;5064831;28;20261;-87
2023/12/16 03:59:37;;;;;;;9.97;9.67;;;5.50;99.90;;;;;;5063543;28;20218;-88
2023/12/16 04:02:07;;;;;;;9.93;9.63;;;5.50;99.90;;;;;;5065795;28;20234;-88
2023/12/16 04:04:37;;;;;;;10.00;9.70;;;5.60;99.90;;;;;;5063356;28;20321;-88
2023/12/16 04:07:09;;;;;;;9.90;9.60;;;5.60;99.90;;;;;;5064398;28;20266;-88
2023/12/16 04:09:37;;;;;;;10.20;9.90;;;5.60;99.90;;;;;;5063921;28;21059;-88
2023/12/16 04:12:09;;;;;;;10.00;9.70;;;5.60;99.90;;;;;;5075216;28;20309;-88
2023/12/16 04:14:38;;;;;;;9.93;9.63;;;5.60;99.90;;;;;;5070127;28;20240;-87
2023/12/16 04:17:05;;;;;;;9.80;9.50;;;5.70;99.90;;;;;;5064621;28;20230;-87
2023/12/16 04:19:34;;;;;;;10.00;9.70;;;5.70;99.90;;;;;;5064040;28;20230;-88
2023/12/16 04:22:13;;;;;;;9.67;9.37;;;5.70;99.90;;;;;;5063492;28;20227;-88
2023/12/16 04:24:41;;;;;;;10.10;9.80;;;5.60;99.90;;;;;;5044680;28;20281;-88
2023/12/16 04:27:14;;;;;;;9.87;9.57;;;5.70;99.90;;;;;;5063974;28;20252;-87
2023/12/16 04:29:41;;;;;;;9.90;9.60;;;5.70;99.90;;;;;;5063733;28;20233;-88
2023/12/16 04:32:10;;;;;;;9.80;9.50;;;5.70;99.90;;;;;;5063659;28;20222;-87
2023/12/16 04:34:49;;;;;;;9.67;9.37;;;5.70;99.90;;;;;;5062689;28;20230;-88
2023/12/16 04:37:17;;;;;;;10.00;9.70;;;5.70;99.90;;;;;;5069511;28;20233;-89
2023/12/16 04:39:57;;;;;;;9.90;9.60;;;5.70;99.90;;;;;;5069198;28;20308;-87
2023/12/16 04:42:27;;;;;;;10.00;9.70;;;5.70;99.90;;;;;;5064924;28;20305;-88
2023/12/16 04:44:55;;;;;;;9.83;9.53;;;5.70;99.90;;;;;;5064853;28;20234;-88
2023/12/16 04:47:34;;;;;;;9.87;9.57;;;5.80;99.90;;;;;;5064260;28;20255;-88
2023/12/16 04:50:03;;;;;;;9.80;9.50;;;5.80;99.90;;;;;;5064401;28;20226;-88
2023/12/16 04:52:32;;;;;;;9.70;9.40;;;5.80;99.90;;;;;;5064417;28;20296;-88
2023/12/16 04:55:10;;;;;;;9.93;9.63;;;5.80;99.90;;;;;;5065114;28;20266;-88
2023/12/16 05:00:26;;;;;;;10.20;9.90;;;5.80;99.90;;;;;;5062916;28;20269;-88
2023/12/16 05:03:06;;;;;;;10.20;9.90;;;5.70;99.90;;;;;;5063320;28;20317;-88
2023/12/16 05:05:35;;;;;;;10.20;9.90;;;5.70;99.90;;;;;;5063598;28;20230;-88
2023/12/16 05:08:03;;;;;;;10.03;9.73;;;5.70;99.90;;;;;;5063541;28;20963;-87
2023/12/16 05:10:42;;;;;;;10.00;9.70;;;5.60;99.90;;;;;;5063258;28;20219;-88
2023/12/16 05:13:30;;;;;;;9.97;9.67;;;5.60;99.90;;;;;;5063950;28;20227;-87
2023/12/16 05:15:59;;;;;;;10.10;9.80;;;5.60;99.90;;;;;;5045730;28;20238;-88
2023/12/16 05:18:25;;;;;;;10.00;9.70;;;5.60;99.90;;;;;;5063211;28;20226;-88
2023/12/16 05:20:57;;;;;;;10.20;9.90;;;5.60;99.90;;;;;;5062521;28;20235;-88
2023/12/16 05:23:26;;;;;;;10.00;9.70;;;5.60;99.90;;;;;;5063564;28;20231;-87
2023/12/16 05:26:05;;;;;;;9.90;9.60;;;5.60;99.90;;;;;;5074187;28;20226;-89
2023/12/16 05:28:36;;;;;;;10.00;9.70;;;5.70;99.90;;;;;;5077271;28;20242;-88
2023/12/16 05:31:04;;;;;;;9.87;9.57;;;5.70;99.90;;;;;;5068520;28;20218;-88
2023/12/16 05:33:33;;;;;;;9.93;9.63;;;5.70;99.90;;;;;;5063589;28;20271;-87
2023/12/16 05:36:03;;;;;;;9.90;9.60;;;5.70;99.90;;;;;;5062642;28;20243;-87
2023/12/16 05:38:33;;;;;;;9.83;9.53;;;5.70;99.90;;;;;;5063552;28;20235;-88
2023/12/16 05:41:03;;;;;;;9.90;9.60;;;5.80;99.90;;;;;;5062742;28;20246;-88
2023/12/16 05:43:31;;;;;;;9.97;9.67;;;5.70;99.90;;;;;;5063270;28;20246;-88
2023/12/16 05:49:05;;;;;;;10.00;9.70;;;5.70;99.90;;;;;;5065514;28;20293;-88
2023/12/16 05:51:51;;;;;;;9.90;9.60;;;5.70;99.90;;;;;;5066137;28;20267;-87
2023/12/16 05:54:31;;;;;;;;;;;;;;;;;;;;;
2023/12/16 05:56:58;;;;;;;9.90;9.60;;;5.70;99.90;;;;;;5084391;28;20242;-82
2023/12/16 05:59:25;;;;;;;10.07;9.77;;;5.70;99.90;;;;;;5086867;28;20284;-82
2023/12/16 06:01:54;;;;;;;10.20;9.90;;;5.60;99.90;;;;;;5086218;28;20317;-81
2023/12/16 06:04:21;;;;;;;10.10;9.80;;;5.60;99.90;;;;;;5086880;28;20229;-82
2023/12/16 06:06:48;;;;;;;10.10;9.80;;;5.60;99.90;;;;;;5086966;28;20963;-82
2023/12/16 06:09:16;;;;;;;10.20;9.90;;;5.60;99.90;;;;;;5086937;28;20264;-80
2023/12/16 06:11:44;;;;;;;10.13;9.83;;;5.60;99.90;;;;;;5087110;28;20241;-80
2023/12/16 06:14:11;;;;;;;10.20;9.90;;;5.60;99.90;;;;;;5086511;28;20223;-80
2023/12/16 06:16:38;;;;;;;10.20;9.90;;;5.60;99.90;;;;;;5087053;28;20226;-81
2023/12/16 06:19:07;;;;;;;10.03;9.73;;;5.60;99.90;;;;;;5086095;28;20234;-81
2023/12/16 06:21:34;;;;;;;9.93;9.63;;;5.60;99.90;;;;;;5087431;28;20245;-81
2023/12/16 06:24:02;;;;;;;10.20;9.90;;;5.70;99.90;;;;;;5086283;28;20226;-82
2023/12/16 06:26:29;;;;;;;9.70;9.40;;;5.60;99.90;;;;;;5087304;28;20234;-81
2023/12/16 06:28:56;;;;;;;9.93;9.63;;;5.70;99.90;;;;;;5086767;28;20256;-81
2023/12/16 06:31:24;;;;;;;10.00;9.70;;;5.70;99.90;;;;;;5085868;28;20223;-82
2023/12/16 06:33:51;;;;;;;10.10;9.80;;;5.60;99.90;;;;;;5086180;28;20217;-82
2023/12/16 06:36:20;;;;;;;9.70;9.40;;;5.70;99.90;;;;;;5085616;28;20242;-82
2023/12/16 06:38:47;;;;;;;9.70;9.40;;;5.70;99.90;;;;;;5086595;28;20234;-81
2023/12/16 06:41:14;;;;;;;9.73;9.43;;;5.70;99.90;;;;;;5085504;28;20226;-82
2023/12/16 06:43:42;;;;;;;9.70;9.40;;;5.70;99.90;;;;;;5085282;28;20249;-80
2023/12/16 06:46:09;;;;;;;9.70;9.40;;;5.80;99.90;;;;;;5085414;28;20234;-81
2023/12/16 06:48:36;;;;;;;9.60;9.30;;;5.70;99.90;;;;;;5085821;28;20261;-80
2023/12/16 06:51:03;;;;;;;9.60;9.30;;;5.80;99.90;;;;;;5085690;28;20292;-81
2023/12/16 06:53:35;;;;;;;9.73;9.43;;;5.80;99.90;;;;;;5088661;28;20272;-81
2023/12/16 06:56:02;;;;;;;9.80;9.50;;;5.80;99.90;;;;;;5088463;28;20249;-81
2023/12/16 06:58:32;;;;;;;9.90;9.60;;;5.80;99.90;;;;;;5086485;28;20276;-81
2023/12/16 07:00:59;;;;;;;9.90;9.60;;;5.80;99.90;;;;;;5085254;28;20300;-81
2023/12/16 07:03:28;;;;;;;10.17;9.87;;;5.80;99.90;;;;;;5086371;28;20222;-81
2023/12/16 07:05:55;;;;;;;10.13;9.83;;;5.70;99.90;;;;;;5088357;28;20230;-81
2023/12/16 07:08:22;;;;;;;10.10;9.80;;;5.70;99.90;;;;;;5089749;28;20238;-82
2023/12/16 07:10:51;;;;;;;10.20;9.90;;;5.70;99.90;;;;;;5086818;28;20230;-81
2023/12/16 07:13:18;;;;;;;9.90;9.60;;;5.70;99.90;;;;;;5085994;28;20241;-81
2023/12/16 07:15:46;;;;;;;9.80;9.50;;;5.70;99.90;;;;;;5085470;28;20316;-81
2023/12/16 07:18:13;;;;;;;9.97;9.67;;;5.60;99.90;;;;;;5087068;28;20229;-81
2023/12/16 07:20:40;;;;;;;9.70;9.40;;;5.60;99.90;;;;;;5085142;28;20229;-81
2023/12/16 07:23:08;;;;;;;9.83;9.53;;;5.60;99.90;;;;;;5085601;28;20261;-81
2023/12/16 07:25:35;;;;;;;9.57;9.27;;;5.60;99.90;;;;;;5085643;28;20230;-81
2023/12/16 07:28:04;;;;;;;9.50;9.20;;;5.60;99.90;;;;;;5085184;28;20226;-81
2023/12/16 07:30:32;;;;;;;9.33;9.03;;;5.60;99.90;;;;;;5085472;28;20319;-81
2023/12/16 07:32:59;;;;;;;9.60;9.30;;;5.60;99.90;;;;;;5086368;28;20222;-82
2023/12/16 07:35:26;;;;;;;9.67;9.37;;;5.60;99.90;;;;;;5086142;28;20234;-81
2023/12/16 07:37:53;;;;;;;9.68;9.38;;;5.60;99.90;;;;;;5085344;28;20416;-82
2023/12/16 07:40:21;;;;;;;9.67;9.37;;;5.60;99.90;;;;;;5093890;28;20206;-82
2023/12/16 07:42:48;;;;;;;9.60;9.30;;;5.70;99.90;;;;;;5087380;28;20320;-83
2023/12/16 07:45:18;;;;;;;9.47;9.17;;;5.60;99.90;;;;;;5088235;28;20234;-82
2023/12/16 07:47:45;;;;;;;9.80;9.50;;;5.70;99.90;;;;;;5086544;28;20249;-82
2023/12/16 07:50:16;;;;;;;9.60;9.30;;;5.80;99.90;;;;;;5082858;28;20265;-83
2023/12/16 07:52:46;;;;;;;9.50;9.20;;;5.80;99.90;;;;;;5085346;28;20230;-82
2023/12/16 07:55:14;;;;;;;9.30;9.00;;;5.80;99.90;;;;;;5085329;28;20241;-83
2023/12/16 07:57:41;;;;;;;9.50;9.20;;;5.80;99.90;;;;;;5085477;28;20230;-82
2023/12/16 08:00:10;;;;;;;9.77;9.47;;;5.70;99.90;;;;;;5084567;28;20238;-82
2023/12/16 08:02:39;;;;;;;9.43;9.13;;;5.70;99.90;;;;;;5084576;28;20274;-82
2023/12/16 08:05:08;;;;;;;9.60;9.30;;;5.70;99.90;;;;;;5085291;28;20244;-83
2023/12/16 08:07:35;;;;;;;9.50;9.20;;;5.80;99.90;;;;;;5084363;28;20293;-83
2023/12/16 08:10:03;;;;;;;9.17;8.87;;;5.90;99.90;;;;;;5084746;28;20246;-83
2023/12/16 08:12:31;;;;;;;9.43;9.13;;;5.90;99.90;;;;;;5085953;28;20264;-81
2023/12/16 08:14:58;;;;;;;9.60;9.30;;;5.90;99.90;;;;;;5090412;28;20226;-81
2023/12/16 08:17:25;;;;;;;9.70;9.40;;;5.90;99.90;;;;;;5100461;28;20206;-81
2023/12/16 08:19:54;;;;;;;9.63;9.33;;;5.90;99.90;;;;;;5100202;28;20218;-81
2023/12/16 08:22:22;;;;;;;9.77;9.47;;;6.00;99.90;;;;;;5097220;28;20222;-83
2023/12/16 08:24:49;;;;;;;9.63;9.33;;;6.00;99.90;;;;;;5090676;28;20240;-81
2023/12/16 08:27:15;;;;;;;9.80;9.50;;;6.00;99.90;;;;;;5087687;28;20234;-82
2023/12/16 08:29:46;;;;;;;9.90;9.60;;;6.00;99.90;;;;;;5086330;28;20237;-82
2023/12/16 08:32:13;;;;;;;9.40;9.10;;;6.10;99.90;;;;;;5086892;28;20299;-83
2023/12/16 08:34:40;;;;;;;9.60;9.30;;;6.10;99.90;;;;;;5091172;28;20230;-81
2023/12/16 08:37:09;;;;;;;9.63;9.33;;;6.20;99.90;;;;;;5091241;28;20226;-82
2023/12/16 08:39:36;;;;;;;9.43;9.13;;;6.20;99.90;;;;;;5086968;28;20289;-81
2023/12/16 08:42:04;;;;;;;9.30;9.00;;;6.20;99.90;;;;;;5087432;28;20211;-81
2023/12/16 08:44:31;;;;;;;9.37;9.07;;;6.20;99.90;;;;;;5085748;28;20230;-81
2023/12/16 08:46:59;;;;;;;9.20;8.90;;;6.20;99.90;;;;;;5086152;28;20234;-80
2023/12/16 08:49:26;;;;;;;8.70;8.50;;;6.30;99.90;;;;;;5084520;28;20238;-82
2023/12/16 08:51:54;;;;;;;9.50;9.20;;;6.40;99.90;;;;;;5084571;28;20410;-81
2023/12/16 08:54:22;;;;;;;9.30;9.00;;;6.40;99.90;;;;;;5087378;28;20297;-81
2023/12/16 08:56:50;;;;;;;9.20;8.90;;;6.50;99.90;;;;;;5089113;28;20230;-81
2023/12/16 08:59:17;;;;;;;9.30;9.00;;;6.50;99.90;;;;;;5085875;28;20223;-82
2023/12/16 09:01:44;;;;;;;9.23;8.93;;;6.50;99.90;;;;;;5087437;28;20221;-82
2023/12/16 09:04:12;;;;;;;9.20;8.90;;;6.50;99.90;;;;;;5087071;28;20230;-85
2023/12/16 09:06:41;;;;;;;9.10;8.80;;;6.50;99.90;;;;;;5086167;28;20230;-81
2023/12/16 09:09:09;;;;;;;9.00;8.70;;;6.50;99.90;;;;;;5090182;28;20276;-82
2023/12/16 09:11:38;;;;;;;9.10;8.80;;;6.50;99.90;;;;;;5091579;28;20253;-81
2023/12/16 09:14:06;;;;;;;9.33;9.03;;;6.50;99.90;;;;;;5093390;28;20234;-82
2023/12/16 09:16:35;;;;;;;9.20;8.90;;;6.50;99.90;;;;;;5089614;28;20234;-81
2023/12/16 09:19:03;;;;;;;9.23;8.93;;;6.50;99.90;;;;;;5087123;28;20253;-82
2023/12/16 09:21:31;;;;;;;9.50;9.20;;;6.50;99.90;;;;;;5084769;28;20220;-83
2023/12/16 09:24:01;;;;;;;9.50;9.20;;;6.60;99.90;;;;;;5084338;28;20234;-83
2023/12/16 09:26:29;;;;;;;9.30;9.00;;;6.60;99.90;;;;;;5084958;28;20365;-81
2023/12/16 09:28:57;;;;;;;9.87;9.57;;;6.70;99.90;;;;;;5085646;28;20226;-79
2023/12/16 09:31:25;;;;;;;9.73;9.43;;;6.60;99.90;;;;;;5087858;28;20287;-82
2023/12/16 09:33:52;;;;;;;9.97;9.67;;;6.70;99.90;;;;;;5089655;28;20234;-82
2023/12/16 09:36:19;;;;;;;9.80;9.50;;;6.60;99.90;;;;;;5085774;28;20248;-82
2023/12/16 09:38:47;;;;;;;9.83;9.53;;;6.60;99.90;;;;;;5084402;28;20222;-82
2023/12/16 09:41:23;;;;;;;9.83;9.53;;;6.60;99.90;;;;;;5083354;28;20230;-82
2023/12/16 09:43:53;;;;;;;9.93;9.63;;;6.60;99.90;;;;;;5085043;28;20231;-81
2023/12/16 09:46:24;;;;;;;9.83;9.53;;;6.80;99.90;;;;;;5083957;28;20238;-82
2023/12/16 09:48:52;;;;;;;10.00;9.70;;;6.80;99.90;;;;;;5084267;28;20237;-82
2023/12/16 09:51:21;;;;;;;9.47;9.17;;;6.90;99.90;;;;;;5083987;28;20225;-83
2023/12/16 09:53:49;;;;;;;10.20;9.90;;;7.00;99.90;;;;;;5083665;28;20489;-82
2023/12/16 09:56:17;;;;;;;10.23;9.93;;;7.10;99.90;;;;;;5083826;28;20237;-83
2023/12/16 09:58:47;;;;;;;9.80;9.50;;;7.20;99.90;;;;;;5083383;28;20316;-82
2023/12/16 10:01:16;;;;;;;10.00;9.70;;;7.30;99.90;;;;;;5080489;28;20214;-82
2023/12/16 10:03:48;;;;;;;9.90;9.60;;;7.30;99.90;;;;;;5083032;28;20230;-83
2023/12/16 10:06:16;;;;;;;10.00;9.70;;;7.40;99.90;;;;;;5082239;28;20262;-83
2023/12/16 10:08:43;;;;;;;10.30;10.00;;;7.30;99.90;;;;;;5082637;28;20233;-83
2023/12/16 10:11:11;;;;;;;10.10;9.80;;;7.30;99.90;;;;;;5083506;28;20237;-83
2023/12/16 10:13:56;;;;;;;10.30;10.00;;;7.20;99.90;;;;;;5082476;28;20258;-82
2023/12/16 10:16:24;;;;;;;10.17;9.87;;;7.30;99.90;;;;;;5083686;28;20244;-82
2023/12/16 10:18:56;;;;;;;10.20;9.90;;;7.30;99.90;;;;;;5082579;28;20238;-82
2023/12/16 10:21:26;;;;;;;10.10;9.80;;;7.20;99.90;;;;;;5083622;28;20249;-82
2023/12/16 10:23:54;;;;;;;10.30;10.00;;;7.30;99.90;;;;;;5082885;28;20234;-82
2023/12/16 10:26:21;;;;;;;10.40;10.10;;;7.30;99.90;;;;;;5096652;28;20222;-81
2023/12/16 10:28:49;;;;;;;10.20;9.90;;;7.40;99.90;;;;;;5097967;28;20214;-81
2023/12/16 10:31:18;;;;;;;10.20;9.90;;;7.40;99.90;;;;;;5095840;28;20227;-82
2023/12/16 10:33:46;;;;;;;10.13;9.83;;;7.40;99.90;;;;;;5091077;28;20234;-83
2023/12/16 10:36:15;;;;;;;10.50;10.20;;;7.40;99.90;;;;;;5093657;28;20230;-84
2023/12/16 10:38:43;;;;;;;10.13;9.83;;;7.50;99.90;;;;;;5086916;28;20229;-83
2023/12/16 10:41:11;;;;;;;10.40;10.10;;;7.50;99.90;;;;;;5087262;28;20222;-83
2023/12/16 10:43:38;;;;;;;10.20;9.90;;;7.50;99.90;;;;;;5086951;28;20233;-83
2023/12/16 10:46:07;;;;;;;9.93;9.63;;;7.40;99.90;;;;;;5090175;28;20230;-83
2023/12/16 10:48:36;;;;;;;10.00;9.70;;;7.40;99.90;;;;;;5095825;28;20214;-83
2023/12/16 10:51:05;;;;;;;9.93;9.63;;;7.30;99.90;;;;;;5102817;28;20241;-82
2023/12/16 10:53:44;;;;;;;9.80;9.50;;;7.30;99.90;;;;;;5102528;28;20253;-82
2023/12/16 10:56:25;;;;;;;9.83;9.53;;;7.40;99.90;;;;;;5101716;28;20252;-83
2023/12/16 10:59:02;;;;;;;10.10;9.80;;;7.50;99.90;;;;;;5100025;28;20265;-83
2023/12/16 11:01:34;;;;;;;9.90;9.60;;;7.60;99.90;;;;;;5102018;28;20228;-83
2023/12/16 11:04:12;;;;;;;9.70;9.40;;;7.70;99.90;;;;;;5102082;28;20230;-82
2023/12/16 11:06:45;;;;;;;9.70;9.40;;;8.00;99.90;;;;;;5103152;28;20214;-84
2023/12/16 11:09:14;;;;;;;9.57;9.27;;;8.30;99.90;;;;;;5102010;28;20214;-83
2023/12/16 11:11:42;;;;;;;9.80;9.50;;;8.60;99.90;;;;;;5102515;28;20233;-81
2023/12/16 11:14:11;;;;;;;9.77;9.47;;;8.70;99.90;;;;;;5102583;28;20230;-82
2023/12/16 11:16:55;;;;;;;9.97;9.67;;;9.00;99.90;;;;;;5102649;28;20210;-83
2023/12/16 11:19:27;;;;;;;9.80;9.50;;;9.10;99.90;;;;;;5102733;28;20248;-83
2023/12/16 11:21:54;;;;;;;9.80;9.50;;;9.20;99.90;;;;;;5102186;28;20210;-78
2023/12/16 11:24:23;;;;;;;9.97;9.67;;;9.30;99.90;;;;;;5101745;28;20233;-83
2023/12/16 11:26:52;;;;;;;9.40;9.10;;;9.60;99.90;;;;;;5102449;28;20246;-83
2023/12/16 11:29:22;;;;;;;9.67;9.37;;;10.00;99.90;;;;;;5101879;28;20233;-82
2023/12/16 11:31:53;;;;;;;9.57;9.27;;;10.30;99.90;;;;;;5102352;28;20202;-82
2023/12/16 11:34:45;;;;;;;9.40;9.10;;;10.50;99.90;;;;;;5102020;28;20238;-83
2023/12/16 11:37:13;;;;;;;9.60;9.30;;;10.60;99.90;;;;;;5091118;28;20236;-82
2023/12/16 11:39:44;;;;;;;9.70;9.40;;;10.80;99.90;;;;;;5086420;28;20245;-83
2023/12/16 11:42:14;;;;;;;9.73;9.43;;;10.80;99.90;;;;;;5083606;28;20325;-82
2023/12/16 11:44:52;;;;;;;9.40;9.10;;;10.80;99.90;;;;;;5085052;28;20264;-81
2023/12/16 11:47:24;;;;;;;9.50;9.20;;;11.10;99.90;;;;;;5079850;28;20234;-82
2023/12/16 11:49:52;;;;;;;9.70;9.40;;;11.20;99.90;;;;;;5084589;28;20237;-82
2023/12/16 11:52:22;;;;;;;9.90;9.60;;;11.50;99.90;;;;;;5085424;28;20226;-82
2023/12/16 11:54:55;;;;;;;9.90;9.60;;;11.60;99.90;;;;;;5085466;28;20242;-82
2023/12/16 11:57:24;;;;;;;9.60;9.30;;;11.40;99.90;;;;;;5077863;28;20285;-81
2023/12/16 11:59:51;;;;;;;9.40;9.10;;;11.10;99.90;;;;;;5086486;28;20254;-81
2023/12/16 12:02:21;;;;;;;9.37;9.07;;;10.80;99.90;;;;;;5124267;22;20229;-85
2023/12/16 12:05:01;;;;;;;9.20;8.90;;;10.50;99.90;;;;;;5106675;28;20225;-84
2023/12/16 12:07:30;;;;;;;9.70;9.40;;;10.40;99.90;;;;;;5092561;28;20238;-86
2023/12/16 12:10:07;;;;;;;9.60;9.30;;;10.20;99.90;;;;;;5087838;28;20276;-85
2023/12/16 12:12:47;;;;;;;9.50;9.20;;;9.90;99.90;;;;;;5086382;28;20345;-86
2023/12/16 12:15:15;;;;;;;9.50;9.20;;;9.60;99.90;;;;;;5072644;28;20233;-86
2023/12/16 12:17:44;;;;;;;9.17;8.87;;;9.40;99.90;;;;;;5109727;28;20256;-84
2023/12/16 12:20:15;;;;;;;9.30;9.00;;;9.20;99.90;;;;;;5101437;28;20234;-84
2023/12/16 12:22:43;;;;;;;9.20;8.90;;;9.10;99.90;;;;;;5095539;28;20252;-83
2023/12/16 12:28:00;;;;;;;9.60;9.30;;;8.90;99.90;;;;;;5096974;28;20233;-85
2023/12/16 12:30:40;;;;;;;9.40;9.10;;;8.70;99.90;;;;;;5088741;28;20226;-85
2023/12/16 12:33:07;;;;;;;9.27;8.97;;;8.80;99.90;;;;;;5089013;28;20229;-85
2023/12/16 12:35:47;;;;;;;9.50;9.20;;;8.80;99.90;;;;;;5088229;28;20230;-85
2023/12/16 12:43:59;;;;;;;10.00;9.70;;;8.40;99.90;;;;;;5096038;28;20226;-86
2023/12/16 12:46:27;;;;;;;10.00;9.70;;;8.40;99.90;;;;;;5085980;28;20230;-88
2023/12/16 12:48:57;;;;;;;9.70;9.40;;;8.30;99.90;;;;;;5085067;28;20230;-88
2023/12/16 12:51:26;;;;;;;9.90;9.60;;;8.20;99.90;;;;;;5085112;28;20237;-88
2023/12/16 12:53:58;;;;;;;9.87;9.57;;;8.00;99.90;;;;;;5084744;28;20237;-84
2023/12/16 12:56:28;;;;;;;9.90;9.60;;;7.90;99.90;;;;;;5085418;28;20230;-86
2023/12/16 12:58:57;;;;;;;9.97;9.67;;;7.80;99.90;;;;;;5090255;28;20242;-87
2023/12/16 13:01:24;;;;;;;10.10;9.80;;;7.80;99.90;;;;;;5105159;28;20235;-87
2023/12/16 13:03:54;;;;;;;9.83;9.53;;;7.70;99.90;;;;;;5106173;28;20225;-86
2023/12/16 13:06:33;;;;;;;9.63;9.33;;;7.60;99.90;;;;;;5105753;28;20299;-86
2023/12/16 13:09:01;;;;;;;9.60;9.30;;;7.50;99.90;;;;;;5105864;28;20241;-87
2023/12/16 13:11:33;;;;;;;9.40;9.10;;;7.60;99.90;;;;;;5106642;28;20316;-86
2023/12/16 13:14:01;;;;;;;9.70;9.40;;;7.50;99.90;;;;;;5105195;28;20224;-88
2023/12/16 13:16:29;;;;;;;9.53;9.23;;;7.50;99.90;;;;;;5105275;28;20225;-87
2023/12/16 13:19:08;;;;;;;9.53;9.23;;;7.50;99.90;;;;;;5103404;28;20233;-86
2023/12/16 13:21:39;;;;;;;9.80;9.50;;;7.50;99.90;;;;;;5105014;28;20229;-86
2023/12/16 13:24:08;;;;;;;9.73;9.43;;;7.40;99.90;;;;;;5095868;28;20234;-88
2023/12/16 13:26:39;;;;;;;9.60;9.30;;;7.40;99.90;;;;;;5097051;28;20312;-86
2023/12/16 13:29:06;;;;;;;9.70;9.40;;;7.40;99.90;;;;;;5104822;28;20234;-86
2023/12/16 13:31:35;;;;;;;9.80;9.50;;;7.40;99.90;;;;;;5105178;28;20230;-84
2023/12/16 13:34:13;;;;;;;9.77;9.47;;;7.40;99.90;;;;;;5106095;28;20222;-86